Hlavní strana
METAR-TAF:

METAR-TAF

Letiště :

Knoxville Municipal Airport

Knoxville, Iowa, Spojené státy americké

zeměpisná šířka: 41-18N, zeměpisná délka: 093-07W, výška: 283 m

Aktuální stav počasí

Zpráva byla vytvořena před 20 minutami, v 10:15 UTC
Severní vítr 10 kt
Teplota -1°C
Vlhkost vzduchu 108%
Tlak 1012 hPa
Viditelnost: 2.4 km
Zataženo ve výšce 500 ft
(silný) neznámé

METAR: KOXV 241015Z AUTO 36010KT 1 1/2SM +UP OVC005 M01/M00 A2987 RMK AO2

Čas: 04:35 (10:35 UTC)


TAF: chybějící

Stav a předpovědi počasí z více než 4 000 letišť (zprávy METAR a TAF).

Červené a žluté tečky na mapě představují dostupné meteorologické stanice.

Když kurzor umístíte na tečku, zobrazí se název stanice.

Pak kliknutím zobrazíte stav a předpověď počasí.

Chcete-li změnit mapu, kliknutím na zelené tlačítko se znaménkem +mapu přiblížíte, kliknutím na zelené tlačítko se znaménkem – mapu oddálíte a kliknutím na zelené šipky přejdete na sousední mapy.


METAR-TAF: